createdAt,value
2023-01-15T00:02:13.477Z,1.05
2023-01-15T00:07:15.021Z,1.05
2023-01-15T00:12:16.538Z,0.52
2023-01-15T00:17:18.060Z,0.80
2023-01-15T00:22:19.565Z,0.80
2023-01-15T00:27:21.132Z,0.75
2023-01-15T00:32:22.667Z,1.00
2023-01-15T00:37:24.169Z,1.33
2023-01-15T00:42:25.649Z,1.40
2023-01-15T00:47:27.170Z,1.10
2023-01-15T00:52:28.669Z,1.27
2023-01-15T00:57:30.264Z,1.08
2023-01-15T01:02:31.850Z,0.88
2023-01-15T01:07:33.360Z,1.00
2023-01-15T01:12:34.927Z,0.80
2023-01-15T01:17:38.287Z,0.88
2023-01-15T01:22:40.273Z,0.30
2023-01-15T01:27:44.613Z,0.40
2023-01-15T01:32:46.172Z,0.40
2023-01-15T01:37:51.952Z,0.45
2023-01-15T01:42:53.460Z,0.38
2023-01-15T01:48:02.703Z,0.30
2023-01-15T01:53:09.955Z,0.30
2023-01-15T01:58:13.295Z,0.20
2023-01-15T02:03:15.884Z,0.40
2023-01-15T02:08:17.458Z,0.20
2023-01-15T02:13:40.036Z,0.30
2023-01-15T02:18:47.873Z,0.30
2023-01-15T02:24:09.654Z,0.73
2023-01-15T02:29:21.255Z,0.10
2023-01-15T02:34:34.682Z,0.28
2023-01-15T02:44:49.533Z,0.75
2023-01-15T02:49:55.133Z,0.30
2023-01-15T02:55:07.554Z,0.20
2023-01-15T03:00:17.547Z,0.43
2023-01-15T03:05:26.718Z,0.20
2023-01-15T03:10:51.986Z,0.20
2023-01-15T03:15:54.465Z,0.40
2023-01-15T03:21:00.240Z,0.20
2023-01-15T03:26:01.904Z,0.80
2023-01-15T03:31:03.845Z,0.40
2023-01-15T03:36:05.903Z,0.30
2023-01-15T03:41:18.873Z,0.20
2023-01-15T03:46:36.393Z,0.30
2023-01-15T03:52:04.008Z,0.40
2023-01-15T03:57:20.409Z,0.38
2023-01-15T04:02:24.626Z,0.45
2023-01-15T04:07:27.234Z,0.52
2023-01-15T04:12:28.813Z,0.30
2023-01-15T04:17:31.664Z,0.50
2023-01-15T04:22:33.984Z,0.40
2023-01-15T04:27:35.497Z,0.30
2023-01-15T04:32:36.981Z,0.40
2023-01-15T04:37:38.464Z,0.30
2023-01-15T04:42:39.948Z,0.60
2023-01-15T04:47:41.456Z,0.55
2023-01-15T04:52:42.934Z,0.35
2023-01-15T04:57:44.413Z,0.60
2023-01-15T05:02:45.984Z,0.65
2023-01-15T05:07:47.615Z,0.43
2023-01-15T05:12:49.151Z,0.57
2023-01-15T05:17:50.642Z,1.90
2023-01-15T05:22:52.175Z,0.63
2023-01-15T05:27:53.656Z,0.75
2023-01-15T05:32:55.150Z,0.63
2023-01-15T05:37:56.631Z,0.47
2023-01-15T05:42:58.183Z,0.55
2023-01-15T05:47:59.747Z,0.30
2023-01-15T05:53:01.247Z,0.45
2023-01-15T05:58:02.786Z,0.50
2023-01-15T06:03:04.380Z,0.68
2023-01-15T06:08:05.961Z,0.55
2023-01-15T06:13:07.447Z,0.68
2023-01-15T06:18:10.127Z,0.70
2023-01-15T06:23:11.618Z,0.50
2023-01-15T06:28:13.573Z,0.40
2023-01-15T06:33:15.056Z,0.55
2023-01-15T06:38:16.615Z,0.95
2023-01-15T06:43:18.124Z,0.55
2023-01-15T06:48:19.615Z,0.20
2023-01-15T06:53:21.566Z,0.20
2023-01-15T06:58:23.059Z,0.55
2023-01-15T07:03:24.572Z,0.17
2023-01-15T07:08:27.316Z,0.35
2023-01-15T07:13:28.799Z,0.10
2023-01-15T07:18:32.742Z,0.20
2023-01-15T07:23:34.230Z,0.20
2023-01-15T07:28:35.715Z,0.20
2023-01-15T07:33:37.251Z,0.40
2023-01-15T07:38:38.771Z,0.10
2023-01-15T07:43:40.252Z,0.20
2023-01-15T07:48:41.747Z,0.13
2023-01-15T07:53:43.320Z,0.17
2023-01-15T07:58:44.832Z,0.20
2023-01-15T08:03:46.360Z,0.20
2023-01-15T08:08:47.868Z,0.20
2023-01-15T08:13:49.404Z,0.20
2023-01-15T08:18:50.897Z,0.20
2023-01-15T08:23:52.388Z,0.20
2023-01-15T08:28:53.875Z,0.30
2023-01-15T08:33:55.341Z,0.73
2023-01-15T08:38:56.811Z,0.90
2023-01-15T08:43:58.315Z,0.70
2023-01-15T08:48:59.825Z,0.75
2023-01-15T08:54:01.380Z,1.55
2023-01-15T08:59:06.270Z,0.75
2023-01-15T09:04:07.898Z,0.50
2023-01-15T09:09:10.622Z,0.47
2023-01-15T09:14:56.865Z,0.90
2023-01-15T09:19:36.107Z,0.43
2023-01-15T09:24:37.619Z,0.65
2023-01-15T09:29:39.443Z,0.52
2023-01-15T09:34:40.966Z,0.68
2023-01-15T09:39:43.251Z,0.60
2023-01-15T09:45:00.881Z,0.70
2023-01-15T09:50:21.117Z,1.17
2023-01-15T09:55:26.682Z,0.68
2023-01-15T10:00:35.565Z,0.98
2023-01-15T10:05:46.080Z,0.70
2023-01-15T10:10:52.108Z,0.70
2023-01-15T10:15:53.756Z,0.97
2023-01-15T10:21:45.771Z,0.60
2023-01-15T10:26:58.150Z,0.95
2023-01-15T10:32:36.954Z,1.15
2023-01-15T10:37:50.548Z,0.93
2023-01-15T10:43:00.818Z,1.30
2023-01-15T10:48:11.403Z,0.85
2023-01-15T10:53:41.909Z,0.95
2023-01-15T10:58:52.636Z,0.93
2023-01-15T11:03:54.428Z,0.90
2023-01-15T11:09:09.364Z,0.82
2023-01-15T11:14:11.960Z,1.17
2023-01-15T11:19:28.060Z,0.75
2023-01-15T11:24:29.582Z,0.87
2023-01-15T11:29:35.366Z,0.82
2023-01-15T11:34:38.587Z,0.60
2023-01-15T11:39:40.114Z,1.00
2023-01-15T11:44:51.016Z,0.93
2023-01-15T11:49:54.085Z,0.57
2023-01-15T11:54:55.813Z,0.88
2023-01-15T11:59:58.263Z,0.88
2023-01-15T12:05:01.881Z,0.70
2023-01-15T12:10:15.435Z,0.70
2023-01-15T12:15:41.920Z,0.65
2023-01-15T12:21:04.005Z,0.40
2023-01-15T12:26:12.170Z,0.80
2023-01-15T12:31:21.301Z,0.70
2023-01-15T12:36:29.574Z,0.80
2023-01-15T12:41:34.935Z,0.77
2023-01-15T12:46:42.372Z,0.73
2023-01-15T12:52:10.236Z,0.68
2023-01-15T12:57:21.896Z,0.85
2023-01-15T13:02:35.338Z,0.93
2023-01-15T13:07:42.012Z,0.50
2023-01-15T13:18:05.052Z,1.23
2023-01-15T13:23:36.274Z,0.60
2023-01-15T13:28:43.859Z,0.50
2023-01-15T13:33:53.474Z,0.95
2023-01-15T13:39:02.174Z,0.68
2023-01-15T13:44:03.805Z,0.85
2023-01-15T13:49:05.515Z,0.80
2023-01-15T13:54:15.047Z,0.98
2023-01-15T13:59:44.666Z,0.52
2023-01-15T14:04:46.394Z,0.98
2023-01-15T14:09:47.870Z,0.43
2023-01-15T14:15:01.460Z,2.15
2023-01-15T14:20:24.402Z,0.60
2023-01-15T14:25:47.233Z,0.50
2023-01-15T14:31:25.581Z,0.50
2023-01-15T14:36:30.752Z,0.60
2023-01-15T14:41:35.909Z,0.55
2023-01-15T14:46:37.433Z,0.45
2023-01-15T14:51:50.581Z,0.60
2023-01-15T14:56:56.409Z,0.50
2023-01-15T15:02:05.019Z,0.57
2023-01-15T15:07:16.220Z,0.52
2023-01-15T15:12:40.789Z,0.50
2023-01-15T15:18:01.152Z,0.73
2023-01-15T15:23:15.034Z,0.85
2023-01-15T15:28:16.563Z,0.75
2023-01-15T15:33:25.169Z,0.43
2023-01-15T15:38:27.254Z,0.50
2023-01-15T15:43:50.460Z,0.90
2023-01-15T15:48:57.989Z,1.67
2023-01-15T15:54:13.199Z,0.50
2023-01-15T15:59:27.205Z,0.60
2023-01-15T16:04:28.834Z,0.47
2023-01-15T16:09:30.384Z,0.73
2023-01-15T16:14:35.379Z,0.80
2023-01-15T16:19:37.336Z,0.63
2023-01-15T16:24:38.853Z,0.57
2023-01-15T16:29:40.438Z,0.60
2023-01-15T16:34:42.680Z,0.57
2023-01-15T16:39:46.304Z,0.95
2023-01-15T16:44:55.133Z,0.75
2023-01-15T16:50:22.379Z,0.43
2023-01-15T17:00:52.341Z,0.75
2023-01-15T17:06:12.239Z,1.10
2023-01-15T17:11:27.819Z,0.60
2023-01-15T17:16:29.377Z,1.05
2023-01-15T17:21:30.899Z,0.73
2023-01-15T17:26:32.921Z,0.80
2023-01-15T17:31:35.626Z,0.77
2023-01-15T17:36:37.263Z,0.68
2023-01-15T17:41:38.808Z,0.50
2023-01-15T17:46:40.322Z,0.60
2023-01-15T17:51:42.514Z,0.50
2023-01-15T17:56:44.034Z,0.38
2023-01-15T18:01:47.665Z,0.60
2023-01-15T18:06:55.867Z,0.90
2023-01-15T18:11:57.384Z,0.80
2023-01-15T18:16:58.890Z,0.80
2023-01-15T18:22:00.456Z,0.60
2023-01-15T18:27:01.973Z,0.82
2023-01-15T18:32:03.639Z,1.17
2023-01-15T18:37:05.446Z,0.50
2023-01-15T18:42:07.057Z,0.70
2023-01-15T18:47:13.816Z,0.82
2023-01-15T18:52:16.068Z,0.68
2023-01-15T18:57:17.695Z,2.25
2023-01-15T19:02:21.104Z,2.55
2023-01-15T19:07:22.715Z,1.05
2023-01-15T19:12:24.235Z,0.90
2023-01-15T19:17:25.780Z,1.65
2023-01-15T19:22:27.384Z,0.95
2023-01-15T19:27:28.896Z,1.00
2023-01-15T19:32:32.283Z,1.38
2023-01-15T19:37:33.964Z,1.15
2023-01-15T19:42:36.073Z,1.00
2023-01-15T19:47:40.783Z,1.20
2023-01-15T19:52:42.382Z,1.27
2023-01-15T19:57:46.896Z,1.60
2023-01-15T20:02:48.444Z,1.88
2023-01-15T20:07:50.058Z,1.00
2023-01-15T20:12:51.792Z,1.80
2023-01-15T20:17:53.773Z,1.20
2023-01-15T20:22:55.340Z,2.10
2023-01-15T20:27:58.550Z,1.52
2023-01-15T20:33:00.102Z,1.42
2023-01-15T20:38:01.627Z,0.80
2023-01-15T20:43:03.141Z,2.00
2023-01-15T20:48:05.579Z,1.75
2023-01-15T20:53:08.672Z,2.40
2023-01-15T20:58:10.257Z,2.22
2023-01-15T21:03:12.109Z,1.65
2023-01-15T21:08:13.753Z,1.48
2023-01-15T21:13:15.709Z,1.20
2023-01-15T21:18:17.188Z,1.30
2023-01-15T21:23:18.750Z,0.95
2023-01-15T21:28:20.260Z,1.27
2023-01-15T21:33:21.804Z,0.90
2023-01-15T21:38:23.357Z,0.88
2023-01-15T21:43:25.252Z,1.02
2023-01-15T21:48:26.849Z,0.93
2023-01-15T21:53:28.352Z,1.05
2023-01-15T21:58:29.868Z,0.98
2023-01-15T22:03:31.372Z,0.90
2023-01-15T22:08:33.259Z,0.93
2023-01-15T22:13:35.756Z,1.05
2023-01-15T22:18:37.398Z,1.02
2023-01-15T22:23:38.895Z,1.33
2023-01-15T22:28:40.414Z,1.02
2023-01-15T22:33:41.917Z,1.52
2023-01-15T22:38:43.727Z,1.17
2023-01-15T22:43:45.183Z,1.00
2023-01-15T22:48:46.650Z,1.17
2023-01-15T22:53:48.304Z,0.80
2023-01-15T22:58:52.906Z,0.80
2023-01-15T23:03:54.410Z,1.05
2023-01-15T23:09:00.632Z,2.10
2023-01-15T23:14:02.156Z,1.42
2023-01-15T23:19:04.473Z,1.00
2023-01-15T23:24:06.298Z,0.93
2023-01-15T23:29:07.875Z,0.63
2023-01-15T23:34:09.465Z,0.90
2023-01-15T23:39:10.998Z,0.60
2023-01-15T23:44:20.396Z,0.60
2023-01-15T23:49:21.929Z,0.98
2023-01-15T23:54:23.484Z,0.30
2023-01-15T23:59:25.754Z,0.60
